createdAt,value
2018-02-02T05:01:28.873Z,0
2018-02-02T05:01:54.348Z,0
2018-02-02T05:02:20.034Z,0
2018-02-02T05:02:45.643Z,0
2018-02-02T05:03:11.201Z,0
2018-02-02T05:03:36.734Z,0
2018-02-02T05:04:02.247Z,0
2018-02-02T05:04:27.746Z,0
2018-02-02T05:05:41.547Z,0
2018-02-02T05:07:05.556Z,0
2018-02-02T05:08:34.636Z,0
2018-02-02T05:09:00.149Z,0
2018-02-02T05:09:25.633Z,0
2018-02-02T05:09:51.155Z,0
2018-02-02T05:10:16.657Z,0
2018-02-02T05:10:42.172Z,0
2018-02-02T05:11:07.674Z,0
2018-02-02T05:11:33.180Z,0
2018-02-02T05:11:58.622Z,0
2018-02-02T05:12:24.122Z,0
2018-02-02T05:13:42.999Z,0
2018-02-02T05:14:08.479Z,0
2018-02-02T05:15:17.182Z,0
2018-02-02T05:15:42.677Z,0
2018-02-02T05:16:08.163Z,0
2018-02-02T05:16:33.662Z,0
2018-02-02T05:16:59.199Z,0
2018-02-02T05:17:24.653Z,0
2018-02-02T05:17:50.127Z,0
2018-02-02T05:18:15.642Z,0
2018-02-02T05:18:41.141Z,0
2018-02-02T05:19:06.607Z,0
2018-02-02T05:19:32.100Z,0
2018-02-02T05:19:57.596Z,0
2018-02-02T05:20:23.067Z,0
2018-02-02T05:20:48.540Z,0
2018-02-02T05:21:14.027Z,0
2018-02-02T05:21:39.535Z,0
2018-02-02T05:22:05.015Z,0
2018-02-02T05:22:30.494Z,0
2018-02-02T05:22:55.962Z,0
2018-02-02T05:23:21.485Z,0
2018-02-02T05:23:47.025Z,0
2018-02-02T05:24:12.562Z,0
2018-02-02T05:24:38.057Z,0
2018-02-02T05:25:03.511Z,0
2018-02-02T05:25:29.025Z,0
2018-02-02T05:25:54.504Z,0
2018-02-02T05:26:19.972Z,0
2018-02-02T05:26:45.461Z,0
2018-02-02T05:27:10.999Z,0
2018-02-02T05:27:36.498Z,0
2018-02-02T05:28:01.978Z,0
2018-02-02T05:28:27.447Z,0
2018-02-02T05:28:52.949Z,0
2018-02-02T05:29:18.429Z,0
2018-02-02T05:29:43.915Z,0
2018-02-02T05:31:02.817Z,0
2018-02-02T05:31:28.312Z,0
2018-02-02T05:31:53.790Z,0
2018-02-02T05:32:19.281Z,0
2018-02-02T05:32:44.753Z,0
2018-02-02T05:33:10.242Z,0
2018-02-02T05:33:35.708Z,0
2018-02-02T05:34:01.181Z,0
2018-02-02T05:34:26.676Z,0
2018-02-02T05:34:52.147Z,0
2018-02-02T05:35:17.652Z,0
2018-02-02T05:35:43.122Z,0
2018-02-02T05:36:08.588Z,0
2018-02-02T05:36:34.057Z,0
2018-02-02T05:38:03.123Z,0
2018-02-02T05:38:28.590Z,0
2018-02-02T05:38:54.096Z,0
2018-02-02T05:39:19.630Z,0
2018-02-02T05:39:45.056Z,0
2018-02-02T05:40:10.578Z,0
2018-02-02T05:40:36.070Z,0
2018-02-02T05:41:01.539Z,0
2018-02-02T05:41:27.003Z,0
2018-02-02T05:41:52.501Z,0
2018-02-02T05:42:18.016Z,0
2018-02-02T05:43:47.129Z,0
2018-02-02T05:44:12.628Z,0
2018-02-02T05:44:38.089Z,0
2018-02-02T05:45:03.590Z,0
2018-02-02T05:45:29.086Z,0
2018-02-02T05:45:54.560Z,0
2018-02-02T05:46:20.070Z,0
2018-02-02T05:47:33.819Z,0
2018-02-02T05:47:59.324Z,0
2018-02-02T05:48:24.782Z,0
2018-02-02T05:48:50.287Z,0
2018-02-02T05:49:15.771Z,0
2018-02-02T05:49:41.284Z,0
2018-02-02T05:50:06.834Z,0
2018-02-02T05:50:32.299Z,0
2018-02-02T05:50:57.763Z,0
2018-02-02T05:51:23.255Z,0
2018-02-02T05:51:48.704Z,0
2018-02-02T05:52:14.181Z,0
2018-02-02T05:52:39.659Z,0
2018-02-02T05:53:05.179Z,0
2018-02-02T05:53:30.630Z,0
2018-02-02T05:53:56.097Z,0
2018-02-02T05:54:21.571Z,0
2018-02-02T05:54:47.031Z,0
2018-02-02T05:55:13.199Z,0
2018-02-02T05:55:38.460Z,0
2018-02-02T05:56:03.959Z,0
2018-02-02T05:56:29.431Z,0
2018-02-02T05:56:54.956Z,0
2018-02-02T05:57:20.459Z,0
2018-02-02T05:57:46.020Z,0
2018-02-02T05:58:11.551Z,0
2018-02-02T05:58:36.995Z,0
2018-02-02T05:59:02.463Z,0
2018-02-02T05:59:27.959Z,0
2018-02-02T05:59:53.398Z,0
2018-02-02T06:00:18.870Z,0
2018-02-02T06:00:44.353Z,0
2018-02-02T06:01:09.876Z,0
2018-02-02T06:01:35.364Z,0
2018-02-02T06:02:01.121Z,0
2018-02-02T06:02:26.568Z,0
2018-02-02T06:02:52.063Z,0
2018-02-02T06:03:17.542Z,0
2018-02-02T06:03:43.079Z,0
2018-02-02T06:04:08.554Z,0
2018-02-02T06:04:34.031Z,0
2018-02-02T06:04:59.642Z,0
2018-02-02T06:05:25.130Z,0
2018-02-02T06:05:50.600Z,0
2018-02-02T06:06:16.221Z,0
2018-02-02T06:06:41.623Z,0
2018-02-02T06:07:07.096Z,0
2018-02-02T06:07:32.577Z,0
2018-02-02T06:07:58.030Z,0
2018-02-02T06:08:23.519Z,0
2018-02-02T06:08:49.001Z,0
2018-02-02T06:09:14.515Z,0
2018-02-02T06:09:39.938Z,0
2018-02-02T06:10:05.399Z,0
2018-02-02T06:10:30.888Z,0
2018-02-02T06:10:56.396Z,0
2018-02-02T06:11:21.880Z,0
2018-02-02T06:11:47.381Z,0
2018-02-02T06:12:12.870Z,0
2018-02-02T06:12:38.327Z,0
2018-02-02T06:13:03.797Z,0
2018-02-02T06:13:29.218Z,0
2018-02-02T06:14:48.134Z,0
2018-02-02T06:15:13.627Z,0
2018-02-02T06:15:39.063Z,0
2018-02-02T06:16:04.526Z,0
2018-02-02T06:16:29.962Z,0
2018-02-02T06:16:55.414Z,0
2018-02-02T06:18:24.448Z,0
2018-02-02T06:18:49.921Z,0
2018-02-02T06:19:15.385Z,0
2018-02-02T06:20:34.648Z,0
2018-02-02T06:21:00.093Z,0
2018-02-02T06:21:25.576Z,0
2018-02-02T06:21:51.000Z,0
2018-02-02T06:22:16.496Z,0
2018-02-02T06:22:41.935Z,0
2018-02-02T06:23:07.363Z,0
2018-02-02T06:23:32.812Z,0
2018-02-02T06:23:58.263Z,0
2018-02-02T06:24:23.749Z,0
2018-02-02T06:24:49.258Z,0
2018-02-02T06:25:14.763Z,0
2018-02-02T06:25:40.193Z,0
2018-02-02T06:26:05.655Z,0
2018-02-02T06:26:31.160Z,0
2018-02-02T06:26:56.623Z,0
2018-02-02T06:28:15.473Z,0
2018-02-02T06:28:40.963Z,0
2018-02-02T06:29:06.435Z,0
2018-02-02T06:29:31.865Z,0
2018-02-02T06:29:57.325Z,0
2018-02-02T06:30:22.848Z,0
2018-02-02T06:30:48.372Z,0
2018-02-02T06:31:13.878Z,0
2018-02-02T06:31:39.317Z,0
2018-02-02T06:32:04.756Z,0
2018-02-02T06:32:30.223Z,0
2018-02-02T06:32:55.660Z,0
2018-02-02T06:33:21.132Z,0
2018-02-02T06:33:46.599Z,0
2018-02-02T06:34:12.037Z,0
2018-02-02T06:34:37.513Z,0
2018-02-02T06:35:02.950Z,0
2018-02-02T06:35:28.425Z,0
2018-02-02T06:36:57.476Z,0
2018-02-02T06:37:23.028Z,0
2018-02-02T06:37:48.506Z,0
2018-02-02T06:38:13.996Z,0
2018-02-02T06:38:39.408Z,0
2018-02-02T06:39:04.876Z,0
2018-02-02T06:39:30.389Z,0
2018-02-02T06:39:55.838Z,0
2018-02-02T06:40:21.327Z,0
2018-02-02T06:40:46.806Z,0
2018-02-02T06:41:12.297Z,0
2018-02-02T06:41:37.805Z,0
2018-02-02T06:42:03.285Z,0
2018-02-02T06:42:28.765Z,0
2018-02-02T06:42:54.242Z,0
2018-02-02T06:43:19.699Z,0
2018-02-02T06:43:45.164Z,0
2018-02-02T06:44:10.620Z,0
2018-02-02T06:44:36.127Z,0
2018-02-02T06:45:01.624Z,0
2018-02-02T06:45:27.075Z,0
2018-02-02T06:45:52.559Z,0
2018-02-02T06:46:18.018Z,0
2018-02-02T06:46:43.502Z,0
2018-02-02T06:47:09.013Z,0
2018-02-02T06:47:34.493Z,0
2018-02-02T06:47:59.905Z,0
2018-02-02T06:48:25.538Z,0
2018-02-02T06:49:54.611Z,0
2018-02-02T06:50:20.061Z,0
2018-02-02T06:50:45.503Z,0
2018-02-02T06:51:10.948Z,0
2018-02-02T06:51:36.441Z,0
2018-02-02T06:52:01.915Z,0
2018-02-02T06:52:27.363Z,0
2018-02-02T06:52:52.765Z,0
2018-02-02T06:53:18.237Z,0
2018-02-02T06:53:43.744Z,0
2018-02-02T06:54:09.189Z,0
2018-02-02T06:54:34.651Z,0
2018-02-02T06:55:00.094Z,0
2018-02-02T06:55:25.599Z,0
2018-02-02T06:55:51.053Z,0
2018-02-02T06:56:16.497Z,0
2018-02-02T06:56:41.971Z,0
2018-02-02T06:57:07.447Z,0
2018-02-02T06:57:32.913Z,0
2018-02-02T06:57:58.381Z,0
2018-02-02T06:58:23.840Z,0
2018-02-02T06:58:49.305Z,0
2018-02-02T06:59:14.769Z,0
2018-02-02T06:59:40.195Z,0
2018-02-02T07:00:05.684Z,0
2018-02-02T07:00:31.173Z,0
2018-02-02T07:00:56.579Z,0
2018-02-02T07:01:22.073Z,0
2018-02-02T07:01:47.493Z,0
2018-02-02T07:02:12.977Z,0
2018-02-02T07:02:38.416Z,0
2018-02-02T07:03:03.891Z,0
2018-02-02T07:03:29.349Z,0
2018-02-02T07:03:54.945Z,0
2018-02-02T07:04:20.424Z,0
2018-02-02T07:05:29.333Z,0
2018-02-02T07:05:54.864Z,0
2018-02-02T07:06:20.466Z,0
2018-02-02T07:06:45.842Z,0
2018-02-02T07:07:11.328Z,0
2018-02-02T07:07:36.745Z,0
2018-02-02T07:08:02.227Z,0
2018-02-02T07:08:27.686Z,0
2018-02-02T07:08:53.140Z,0
2018-02-02T07:09:18.624Z,0
2018-02-02T07:09:44.074Z,0
2018-02-02T07:10:09.515Z,0
2018-02-02T07:10:35.032Z,0
2018-02-02T07:11:00.483Z,0
2018-02-02T07:11:26.003Z,0
2018-02-02T07:11:51.467Z,0
2018-02-02T07:12:16.953Z,0
2018-02-02T07:13:35.912Z,0
2018-02-02T07:14:01.342Z,0
2018-02-02T07:14:26.802Z,0
2018-02-02T07:14:52.264Z,0
2018-02-02T07:15:17.811Z,0
2018-02-02T07:15:43.225Z,0
2018-02-02T07:16:08.669Z,0
2018-02-02T07:16:34.124Z,0
2018-02-02T07:16:59.573Z,0
2018-02-02T07:17:25.030Z,0
2018-02-02T07:17:50.474Z,0
2018-02-02T07:18:15.941Z,0
2018-02-02T07:18:41.369Z,0
2018-02-02T07:19:06.873Z,0
2018-02-02T07:19:32.316Z,0
2018-02-02T07:19:57.773Z,0
2018-02-02T07:20:23.244Z,0
2018-02-02T07:20:48.707Z,0
2018-02-02T07:21:14.190Z,0
2018-02-02T07:21:39.688Z,0
2018-02-02T07:22:05.162Z,0
2018-02-02T07:22:30.636Z,0
2018-02-02T07:22:56.112Z,0
2018-02-02T07:24:04.806Z,0
2018-02-02T07:24:30.289Z,0
2018-02-02T07:24:55.768Z,0
2018-02-02T07:25:21.233Z,0
2018-02-02T07:25:46.732Z,0
2018-02-02T07:26:12.203Z,0
2018-02-02T07:26:37.700Z,0
2018-02-02T07:27:03.189Z,0
2018-02-02T07:27:28.695Z,0
2018-02-02T07:27:54.178Z,0
2018-02-02T07:28:19.630Z,0
2018-02-02T07:28:45.077Z,0
2018-02-02T07:29:10.626Z,0
2018-02-02T07:29:36.094Z,0
2018-02-02T07:30:01.552Z,0
2018-02-02T07:30:27.008Z,0
2018-02-02T07:30:52.488Z,0
2018-02-02T07:31:17.954Z,0
2018-02-02T07:31:43.424Z,0
2018-02-02T07:32:08.943Z,0
2018-02-02T07:32:34.353Z,0
2018-02-02T07:32:59.857Z,0
2018-02-02T07:33:25.286Z,0
2018-02-02T07:33:50.732Z,0
2018-02-02T07:34:59.443Z,0
2018-02-02T07:35:24.916Z,0
2018-02-02T07:35:50.389Z,0
2018-02-02T07:36:15.839Z,0
2018-02-02T07:36:41.394Z,0
2018-02-02T07:37:06.876Z,0
2018-02-02T07:37:32.297Z,0
2018-02-02T07:37:57.757Z,0
2018-02-02T07:39:11.509Z,0
2018-02-02T07:39:36.974Z,0
2018-02-02T07:40:02.450Z,0
2018-02-02T07:40:27.891Z,5
2018-02-02T07:40:53.390Z,5
2018-02-02T07:41:18.816Z,5
2018-02-02T07:41:44.252Z,5
2018-02-02T07:42:09.702Z,5
2018-02-02T07:42:35.171Z,5
2018-02-02T07:43:00.637Z,5
2018-02-02T07:43:26.075Z,5
2018-02-02T07:43:51.555Z,5
2018-02-02T07:44:17.023Z,5
2018-02-02T07:44:42.470Z,5
2018-02-02T07:45:07.938Z,5
2018-02-02T07:45:33.438Z,5
2018-02-02T07:45:58.906Z,5
2018-02-02T07:46:24.384Z,5
2018-02-02T07:46:49.842Z,5
2018-02-02T07:47:15.319Z,5
2018-02-02T07:47:40.760Z,5
2018-02-02T07:48:06.202Z,5
2018-02-02T07:48:31.688Z,5
2018-02-02T07:48:57.144Z,5
2018-02-02T07:49:22.612Z,5
2018-02-02T07:49:48.081Z,5
2018-02-02T07:50:13.581Z,5
2018-02-02T07:50:39.056Z,5
2018-02-02T07:51:04.502Z,5
2018-02-02T07:51:29.944Z,5
2018-02-02T07:51:55.421Z,10
2018-02-02T07:52:20.884Z,5
2018-02-02T07:52:46.383Z,5
2018-02-02T07:53:11.806Z,5
2018-02-02T07:53:37.273Z,5
2018-02-02T07:54:02.719Z,5
2018-02-02T07:54:28.158Z,10
2018-02-02T07:54:53.647Z,10
2018-02-02T07:55:19.105Z,10
2018-02-02T07:55:44.593Z,10
2018-02-02T07:56:10.064Z,10
2018-02-02T07:56:35.543Z,10
2018-02-02T07:57:00.989Z,10
2018-02-02T07:57:26.461Z,10
2018-02-02T07:57:51.918Z,10
2018-02-02T07:58:17.416Z,10
2018-02-02T07:58:42.918Z,10
2018-02-02T07:59:08.336Z,10
2018-02-02T07:59:33.789Z,10
2018-02-02T07:59:59.248Z,10
2018-02-02T08:00:24.782Z,10
2018-02-02T08:00:50.242Z,10
2018-02-02T08:01:15.663Z,10
2018-02-02T08:01:41.201Z,10
2018-02-02T08:02:06.847Z,10
2018-02-02T08:03:35.907Z,10
2018-02-02T08:04:01.392Z,10
2018-02-02T08:04:26.845Z,10
2018-02-02T08:04:52.301Z,10
2018-02-02T08:05:17.877Z,10
2018-02-02T08:05:43.373Z,10
2018-02-02T08:06:08.910Z,10
2018-02-02T08:06:34.418Z,10
2018-02-02T08:06:59.874Z,10
2018-02-02T08:07:25.369Z,10
2018-02-02T08:07:50.872Z,10
2018-02-02T08:09:14.892Z,15
2018-02-02T08:09:40.414Z,15
2018-02-02T08:10:05.957Z,15
2018-02-02T08:10:31.383Z,15
2018-02-02T08:10:56.863Z,15
2018-02-02T08:11:22.359Z,15
2018-02-02T08:11:47.833Z,20
2018-02-02T08:12:13.321Z,20
2018-02-02T08:12:38.825Z,20
2018-02-02T08:13:04.335Z,20
2018-02-02T08:13:29.744Z,20
2018-02-02T08:13:55.433Z,20
2018-02-02T08:14:21.171Z,20
2018-02-02T08:14:46.751Z,20
2018-02-02T08:15:12.246Z,20
2018-02-02T08:15:37.756Z,20
2018-02-02T08:16:03.209Z,20
2018-02-02T08:16:28.709Z,20
2018-02-02T08:16:54.204Z,20
2018-02-02T08:17:19.688Z,20
2018-02-02T08:17:45.167Z,20
2018-02-02T08:18:10.597Z,20
2018-02-02T08:18:36.127Z,25
2018-02-02T08:19:01.632Z,20
2018-02-02T08:19:27.122Z,20
2018-02-02T08:19:52.697Z,20
2018-02-02T08:20:18.166Z,20
2018-02-02T08:20:43.633Z,20
2018-02-02T08:21:09.110Z,25
2018-02-02T08:21:34.586Z,25
2018-02-02T08:22:00.070Z,20
2018-02-02T08:22:25.614Z,20
2018-02-02T08:22:51.116Z,20
2018-02-02T08:23:16.666Z,20
2018-02-02T08:23:42.111Z,20
2018-02-02T08:24:07.591Z,20
2018-02-02T08:24:33.054Z,20
2018-02-02T08:24:58.521Z,20
2018-02-02T08:25:23.997Z,15
2018-02-02T08:25:49.466Z,15
2018-02-02T08:26:14.950Z,15
2018-02-02T08:26:40.396Z,20
2018-02-02T08:27:05.851Z,20
2018-02-02T08:27:31.321Z,20
2018-02-02T08:27:56.798Z,20
2018-02-02T08:28:22.265Z,20
2018-02-02T08:29:30.971Z,20
2018-02-02T08:31:00.082Z,20
2018-02-02T08:31:25.582Z,20
2018-02-02T08:31:51.067Z,15
2018-02-02T08:32:16.574Z,15
2018-02-02T08:32:42.024Z,15
2018-02-02T08:33:07.462Z,15
2018-02-02T08:33:33.022Z,15
2018-02-02T08:33:58.441Z,15
2018-02-02T08:34:23.962Z,15
2018-02-02T08:34:49.456Z,15
2018-02-02T08:35:14.940Z,20
2018-02-02T08:35:40.455Z,20
2018-02-02T08:36:05.902Z,15
2018-02-02T08:36:31.377Z,20
2018-02-02T08:36:56.844Z,20
2018-02-02T08:37:22.340Z,20
2018-02-02T08:37:47.810Z,20
2018-02-02T08:38:13.317Z,15
2018-02-02T08:38:38.913Z,15
2018-02-02T08:39:04.369Z,15
2018-02-02T08:39:29.851Z,15
2018-02-02T08:39:55.290Z,15
2018-02-02T08:41:24.371Z,20
2018-02-02T08:41:49.836Z,20
2018-02-02T08:42:15.303Z,20
2018-02-02T08:42:40.781Z,20
2018-02-02T08:43:54.534Z,20
2018-02-02T08:45:03.233Z,25
2018-02-02T08:45:28.711Z,25
2018-02-02T08:45:54.229Z,25
2018-02-02T09:11:03.117Z,55
2018-02-02T09:11:28.706Z,50
2018-02-02T09:11:54.189Z,55
2018-02-02T09:12:19.708Z,60
2018-02-02T09:12:45.223Z,60
2018-02-02T09:14:04.166Z,70
2018-02-02T09:14:29.690Z,80
2018-02-02T09:14:55.204Z,75
2018-02-02T09:15:20.719Z,75
2018-02-02T09:16:39.657Z,65
2018-02-02T09:17:05.086Z,65
2018-02-02T09:17:30.637Z,60
2018-02-02T09:17:56.098Z,50
2018-02-02T09:18:21.598Z,60
2018-02-02T09:18:47.091Z,60
2018-02-02T09:19:12.618Z,60
2018-02-02T09:19:38.103Z,55
2018-02-02T09:20:03.584Z,60
2018-02-02T09:20:29.418Z,55
2018-02-02T09:20:55.059Z,65
2018-02-02T09:21:20.398Z,75
2018-02-02T09:21:45.971Z,75
2018-02-02T09:22:11.396Z,65
2018-02-02T09:22:36.920Z,65
2018-02-02T09:23:02.394Z,60
2018-02-02T09:23:27.912Z,55
2018-02-02T09:23:53.428Z,55
2018-02-02T09:24:18.963Z,55
2018-02-02T09:24:44.426Z,50
2018-02-02T09:25:09.914Z,50
2018-02-02T09:25:35.370Z,55
2018-02-02T09:26:00.820Z,60
2018-02-02T09:26:26.297Z,55
2018-02-02T09:26:51.806Z,65
2018-02-02T09:27:17.255Z,75
2018-02-02T09:27:42.763Z,75
2018-02-02T09:28:08.259Z,80
2018-02-02T09:28:33.797Z,90
2018-02-02T09:28:59.324Z,100
2018-02-02T09:29:24.800Z,100
2018-02-02T09:29:50.280Z,100
2018-02-02T09:30:15.735Z,110
2018-02-02T09:30:41.312Z,105
2018-02-02T09:31:06.784Z,100
2018-02-02T09:31:32.307Z,95
2018-02-02T09:31:57.777Z,95
2018-02-02T09:32:23.348Z,90
2018-02-02T09:32:48.789Z,90
2018-02-02T09:33:14.291Z,90
2018-02-02T09:33:39.806Z,95
2018-02-02T09:34:05.342Z,95
2018-02-02T09:34:30.911Z,90
2018-02-02T09:34:56.414Z,85
2018-02-02T09:36:15.354Z,95
2018-02-02T09:36:40.839Z,95
2018-02-02T09:37:06.367Z,100
2018-02-02T09:37:31.869Z,105
2018-02-02T09:37:57.346Z,100
2018-02-02T09:38:22.869Z,95
2018-02-02T09:38:48.410Z,95
2018-02-02T09:39:14.122Z,100
2018-02-02T09:39:39.675Z,95
2018-02-02T09:40:05.193Z,95
2018-02-02T09:40:30.656Z,95
2018-02-02T09:40:56.198Z,100
2018-02-02T09:41:21.696Z,105
2018-02-02T09:41:47.213Z,105
2018-02-02T09:42:12.689Z,110
2018-02-02T09:42:38.182Z,110
2018-02-02T09:43:03.659Z,110
2018-02-02T09:43:29.268Z,115
2018-02-02T09:43:54.741Z,120
2018-02-02T09:45:03.472Z,130
2018-02-02T09:45:28.986Z,130
2018-02-02T09:45:54.472Z,130
2018-02-02T09:46:19.961Z,125
2018-02-02T09:46:45.518Z,120
2018-02-02T09:47:11.002Z,120
2018-02-02T09:47:36.478Z,125
2018-02-02T09:48:01.979Z,115
2018-02-02T09:48:27.460Z,110
2018-02-02T09:48:52.937Z,100
2018-02-02T09:49:18.383Z,100
2018-02-02T09:49:43.921Z,115
2018-02-02T09:50:09.453Z,115
2018-02-02T09:50:34.935Z,110
2018-02-02T09:51:00.442Z,105
2018-02-02T09:51:25.942Z,105
2018-02-02T09:51:51.444Z,105
2018-02-02T09:52:17.014Z,110
2018-02-02T09:52:42.517Z,110
2018-02-02T09:53:08.004Z,110
2018-02-02T09:53:33.485Z,110
2018-02-02T09:53:59.038Z,115
2018-02-02T09:54:24.538Z,115
2018-02-02T09:54:50.055Z,125
2018-02-02T09:55:15.528Z,115
2018-02-02T09:55:41.020Z,105
2018-02-02T09:56:06.522Z,110
2018-02-02T09:56:32.022Z,115
2018-02-02T09:57:51.249Z,95
2018-02-02T09:58:16.737Z,95
2018-02-02T09:58:42.226Z,85
2018-02-02T09:59:07.695Z,85
2018-02-02T09:59:33.205Z,85
2018-02-02T09:59:58.723Z,80
2018-02-02T10:00:24.224Z,85
2018-02-02T10:00:49.715Z,90
2018-02-02T10:01:15.229Z,85
2018-02-02T10:01:40.701Z,90
2018-02-02T10:02:06.261Z,90
2018-02-02T10:02:31.694Z,85
2018-02-02T10:02:57.165Z,80
2018-02-02T10:03:22.663Z,80
2018-02-02T10:03:48.177Z,80
2018-02-02T10:04:13.666Z,75
2018-02-02T10:04:39.127Z,70
2018-02-02T10:05:04.692Z,65
2018-02-02T10:05:30.204Z,65
2018-02-02T10:05:55.662Z,70
2018-02-02T10:06:21.105Z,70
2018-02-02T10:06:46.615Z,70
2018-02-02T10:07:12.106Z,65
2018-02-02T10:07:37.567Z,65
2018-02-02T10:08:03.137Z,70
2018-02-02T10:08:28.630Z,70
2018-02-02T10:08:54.122Z,80
2018-02-02T10:09:19.606Z,80
2018-02-02T10:09:45.083Z,90
2018-02-02T10:10:10.590Z,95
2018-02-02T10:10:36.069Z,100
2018-02-02T10:11:01.571Z,105
2018-02-02T10:11:27.280Z,120
2018-02-02T10:11:52.766Z,125
2018-02-02T10:12:18.233Z,130
2018-02-02T10:13:32.043Z,130
2018-02-02T10:13:57.528Z,125
2018-02-02T10:14:23.012Z,135
2018-02-02T10:14:48.490Z,140
2018-02-02T10:15:14.001Z,145
2018-02-02T10:15:39.486Z,150
2018-02-02T10:16:04.993Z,150
2018-02-02T10:16:30.547Z,150
2018-02-02T10:16:55.987Z,150
2018-02-02T10:17:21.449Z,130
2018-02-02T10:17:46.987Z,120
2018-02-02T10:18:12.441Z,110
2018-02-02T10:18:38.044Z,105
2018-02-02T10:19:03.479Z,105
2018-02-02T10:19:28.961Z,95
2018-02-02T10:19:54.444Z,90
2018-02-02T10:21:14.151Z,110
2018-02-02T10:21:39.639Z,110
2018-02-02T10:22:05.139Z,100
2018-02-02T10:22:30.621Z,105
2018-02-02T10:22:56.095Z,110
2018-02-02T10:23:21.533Z,115
2018-02-02T10:23:47.061Z,115
2018-02-02T10:25:05.936Z,115
2018-02-02T10:25:31.418Z,110
2018-02-02T10:25:56.889Z,110
2018-02-02T10:26:22.372Z,120
2018-02-02T10:26:47.861Z,125
2018-02-02T10:27:13.345Z,125
2018-02-02T10:27:38.813Z,125
2018-02-02T10:28:04.309Z,130
2018-02-02T10:28:29.800Z,115
2018-02-02T10:28:55.304Z,105
2018-02-02T10:29:20.788Z,105
2018-02-02T10:29:46.281Z,100
2018-02-02T10:30:11.776Z,95
2018-02-02T10:30:37.255Z,100
2018-02-02T10:31:02.746Z,105
2018-02-02T10:31:28.202Z,105
2018-02-02T10:31:53.669Z,110
2018-02-02T10:32:19.248Z,110
2018-02-02T10:32:44.793Z,115
2018-02-02T10:33:10.368Z,105
2018-02-02T10:33:35.889Z,100
2018-02-02T10:34:01.379Z,100
2018-02-02T10:34:26.869Z,105
2018-02-02T10:34:52.379Z,110
2018-02-02T10:35:17.908Z,110
2018-02-02T10:36:48.102Z,115
2018-02-02T10:37:13.623Z,110
2018-02-02T10:37:39.051Z,110
2018-02-02T10:38:04.531Z,125
2018-02-02T10:38:30.009Z,125
2018-02-02T10:38:55.624Z,115
2018-02-02T10:39:21.089Z,105
2018-02-02T10:39:46.593Z,100
2018-02-02T10:40:12.126Z,90
2018-02-02T10:40:37.600Z,90
2018-02-02T10:41:56.497Z,75
2018-02-02T10:42:22.011Z,80
2018-02-02T10:42:47.476Z,80
2018-02-02T10:43:12.997Z,75
2018-02-02T10:43:38.574Z,70
2018-02-02T10:44:04.080Z,70
2018-02-02T10:44:29.545Z,70
2018-02-02T10:44:55.086Z,70
2018-02-02T10:45:20.680Z,75
2018-02-02T10:45:46.104Z,80
2018-02-02T10:46:11.591Z,90
2018-02-02T10:46:37.062Z,100
2018-02-02T10:47:02.577Z,110
2018-02-02T10:47:28.031Z,125
2018-02-02T10:47:53.522Z,130
2018-02-02T10:48:19.017Z,135
2018-02-02T10:48:44.485Z,145
2018-02-02T10:49:09.980Z,150
2018-02-02T10:49:35.467Z,150
2018-02-02T10:50:01.021Z,135
2018-02-02T10:50:26.515Z,125
2018-02-02T10:51:45.459Z,120
2018-02-02T10:52:10.936Z,120
2018-02-02T10:52:36.391Z,120
2018-02-02T10:53:01.899Z,130
2018-02-02T10:53:27.364Z,140
2018-02-02T10:53:52.848Z,150
2018-02-02T10:55:06.628Z,155
2018-02-02T10:55:32.089Z,160
2018-02-02T10:55:57.568Z,180
2018-02-02T10:56:23.062Z,195
2018-02-02T10:56:48.530Z,200
2018-02-02T10:57:14.017Z,190
2018-02-02T10:57:39.568Z,185
2018-02-02T10:58:05.043Z,180
2018-02-02T10:58:30.572Z,170
2018-02-02T10:58:56.088Z,165
2018-02-02T10:59:21.558Z,160
2018-02-02T10:59:47.050Z,150
2018-02-02T11:00:12.512Z,140
2018-02-02T11:00:38.028Z,135
2018-02-02T11:01:03.507Z,135
2018-02-02T11:01:28.982Z,130
2018-02-02T11:01:54.504Z,135
2018-02-02T11:02:20.015Z,145
2018-02-02T11:02:45.517Z,145
2018-02-02T11:03:10.940Z,140
2018-02-02T11:03:36.497Z,150
2018-02-02T11:04:01.992Z,160
2018-02-02T11:04:27.486Z,165
2018-02-02T11:04:52.958Z,165
2018-02-02T11:05:18.432Z,170
2018-02-02T11:05:43.933Z,165
2018-02-02T11:06:09.447Z,170
2018-02-02T11:06:34.924Z,170
2018-02-02T11:07:59.025Z,155
2018-02-02T11:08:24.493Z,160
2018-02-02T11:08:49.990Z,155
2018-02-02T11:09:58.704Z,165
2018-02-02T11:10:24.193Z,175
2018-02-02T11:10:49.694Z,180
2018-02-02T11:11:15.154Z,185
2018-02-02T11:11:40.645Z,185
2018-02-02T11:12:06.160Z,175
2018-02-02T11:12:31.645Z,170
2018-02-02T11:12:57.182Z,160
2018-02-02T11:13:22.673Z,155
2018-02-02T11:13:48.140Z,150
2018-02-02T11:14:13.609Z,145
2018-02-02T11:14:39.117Z,145
2018-02-02T11:15:04.606Z,145
2018-02-02T11:15:30.161Z,145
2018-02-02T11:15:55.654Z,145
2018-02-02T11:16:21.133Z,135
2018-02-02T11:16:46.618Z,135
2018-02-02T11:17:12.113Z,145
2018-02-02T11:17:37.577Z,150
2018-02-02T11:18:03.076Z,150
2018-02-02T11:18:28.604Z,140
2018-02-02T11:18:54.086Z,135
2018-02-02T11:19:19.557Z,140
2018-02-02T11:19:45.093Z,150
2018-02-02T11:20:10.599Z,155
2018-02-02T11:20:36.063Z,155
2018-02-02T11:21:01.560Z,150
2018-02-02T11:21:27.052Z,145
2018-02-02T11:21:52.510Z,140
2018-02-02T11:22:18.020Z,135
2018-02-02T11:22:43.519Z,135
2018-02-02T11:23:09.013Z,145
2018-02-02T11:23:34.547Z,140
2018-02-02T11:24:00.007Z,135
2018-02-02T11:24:25.483Z,130
2018-02-02T11:24:51.012Z,125
2018-02-02T11:25:16.500Z,125
2018-02-02T11:25:42.014Z,130
2018-02-02T11:26:07.507Z,145
2018-02-02T11:26:33.023Z,150
2018-02-02T11:26:58.533Z,150
2018-02-02T11:27:24.063Z,155
2018-02-02T11:27:49.550Z,155
2018-02-02T11:28:15.029Z,160
2018-02-02T11:28:40.632Z,170
2018-02-02T11:29:06.084Z,175
2018-02-02T11:29:31.618Z,155
2018-02-02T11:30:45.385Z,155
2018-02-02T11:31:10.868Z,150
2018-02-02T11:31:36.359Z,140
2018-02-02T11:32:01.837Z,130
2018-02-02T11:32:27.378Z,115
2018-02-02T11:32:52.884Z,105
2018-02-02T11:33:18.401Z,105
2018-02-02T11:33:43.828Z,105
2018-02-02T11:34:09.331Z,105
2018-02-02T11:34:34.820Z,105
2018-02-02T11:35:00.294Z,110
2018-02-02T11:35:25.816Z,115
2018-02-02T11:35:51.317Z,115
2018-02-02T11:36:16.842Z,115
2018-02-02T11:36:42.329Z,110
2018-02-02T11:38:07.304Z,95
2018-02-02T11:38:32.815Z,90
2018-02-02T11:38:58.292Z,90
2018-02-02T11:39:23.784Z,95
2018-02-02T11:39:49.279Z,90
2018-02-02T11:40:14.778Z,85
2018-02-02T11:40:40.285Z,85
2018-02-02T11:41:05.746Z,85
2018-02-02T11:41:31.330Z,85
2018-02-02T11:41:56.756Z,80
2018-02-02T11:42:22.281Z,80
2018-02-02T11:42:47.796Z,80
2018-02-02T11:43:13.297Z,85
2018-02-02T11:43:38.796Z,85
2018-02-02T11:44:04.273Z,95
2018-02-02T11:44:29.762Z,90
2018-02-02T11:44:55.210Z,90
2018-02-02T11:45:20.722Z,90
2018-02-02T11:45:46.172Z,85
2018-02-02T11:46:11.654Z,80
2018-02-02T11:46:37.155Z,80
2018-02-02T11:47:02.620Z,75
2018-02-02T11:47:28.118Z,75
2018-02-02T11:47:53.620Z,70
2018-02-02T11:48:19.186Z,65
2018-02-02T11:48:44.712Z,65
2018-02-02T11:49:59.324Z,65
2018-02-02T11:50:24.805Z,65
2018-02-02T11:50:50.249Z,65
2018-02-02T11:51:15.748Z,65
2018-02-02T11:51:41.227Z,65
2018-02-02T11:52:08.524Z,70
2018-02-02T11:52:34.142Z,70
2018-02-02T11:52:59.642Z,70
2018-02-02T11:53:25.210Z,65
2018-02-02T11:53:50.661Z,65
2018-02-02T11:54:16.189Z,60
2018-02-02T11:54:41.629Z,60
2018-02-02T11:55:07.253Z,55
2018-02-02T11:55:32.793Z,60
2018-02-02T11:55:58.252Z,60
2018-02-02T11:56:24.024Z,65
2018-02-02T11:56:50.002Z,70
2018-02-02T11:57:15.604Z,70
2018-02-02T11:57:41.183Z,70
2018-02-02T11:58:06.662Z,75
2018-02-02T11:58:32.199Z,85
2018-02-02T11:58:57.723Z,85
2018-02-02T11:59:23.240Z,85
2018-02-02T11:59:48.748Z,95
2018-02-02T12:00:14.250Z,100
2018-02-02T12:00:39.755Z,105
2018-02-02T12:01:05.212Z,105
2018-02-02T12:01:30.747Z,100
2018-02-02T12:01:56.260Z,100
2018-02-02T12:02:21.812Z,100
2018-02-02T12:02:47.294Z,100
2018-02-02T12:03:12.804Z,110
2018-02-02T12:03:38.288Z,110
2018-02-02T12:04:03.797Z,110
2018-02-02T12:04:29.312Z,110
2018-02-02T12:04:56.496Z,105
2018-02-02T12:05:22.037Z,100
2018-02-02T12:05:47.490Z,100
2018-02-02T12:06:12.985Z,110
2018-02-02T12:06:38.525Z,110
2018-02-02T12:07:04.003Z,95
2018-02-02T12:07:29.584Z,80
2018-02-02T12:07:55.088Z,75
2018-02-02T12:08:20.586Z,80
2018-02-02T12:08:46.096Z,80
2018-02-02T12:09:11.568Z,90
2018-02-02T12:09:37.163Z,105
2018-02-02T12:10:02.718Z,120
2018-02-02T12:10:28.325Z,130
2018-02-02T12:11:57.483Z,135